createdAt,value
2023-05-15T00:01:11.795Z,11.95
2023-05-15T00:03:38.231Z,12.73
2023-05-15T00:06:05.016Z,12.75
2023-05-15T00:08:31.774Z,12.23
2023-05-15T00:11:01.474Z,11.50
2023-05-15T00:13:28.515Z,12.07
2023-05-15T00:15:54.865Z,11.38
2023-05-15T00:18:21.254Z,11.75
2023-05-15T00:20:47.507Z,12.10
2023-05-15T00:23:13.875Z,12.57
2023-05-15T00:25:40.381Z,12.35
2023-05-15T00:28:06.708Z,12.32
2023-05-15T00:30:33.005Z,12.65
2023-05-15T00:32:59.338Z,13.43
2023-05-15T00:35:26.126Z,13.57
2023-05-15T00:37:52.617Z,14.38
2023-05-15T00:40:20.932Z,12.93
2023-05-15T00:42:48.051Z,14.90
2023-05-15T00:45:15.308Z,13.93
2023-05-15T00:47:42.237Z,14.45
2023-05-15T00:50:08.901Z,14.90
2023-05-15T00:52:36.637Z,14.35
2023-05-15T00:55:03.764Z,14.15
2023-05-15T00:57:31.633Z,15.20
2023-05-15T00:59:59.097Z,15.57
2023-05-15T01:02:25.531Z,15.63
2023-05-15T01:04:51.895Z,15.57
2023-05-15T01:07:18.296Z,15.93
2023-05-15T01:09:45.226Z,16.08
2023-05-15T01:12:11.764Z,16.02
2023-05-15T01:14:38.045Z,15.63
2023-05-15T01:17:04.312Z,14.75
2023-05-15T01:19:30.878Z,14.88
2023-05-15T01:22:15.770Z,16.73
2023-05-15T01:24:42.046Z,16.35
2023-05-15T01:27:27.370Z,16.67
2023-05-15T01:30:12.578Z,16.60
2023-05-15T01:32:56.969Z,16.25
2023-05-15T01:35:28.011Z,15.70
2023-05-15T01:37:58.108Z,14.65
2023-05-15T01:40:25.583Z,16.30
2023-05-15T01:42:55.115Z,16.95
2023-05-15T01:45:23.078Z,16.55
2023-05-15T01:47:49.756Z,17.52
2023-05-15T01:50:17.425Z,17.10
2023-05-15T01:52:46.511Z,17.83
2023-05-15T01:55:13.439Z,16.65
2023-05-15T01:57:40.911Z,15.63
2023-05-15T02:00:08.288Z,17.08
2023-05-15T02:02:34.950Z,16.48
2023-05-15T02:05:01.445Z,16.50
2023-05-15T02:07:27.846Z,17.45
2023-05-15T02:09:54.211Z,16.75
2023-05-15T02:12:20.846Z,16.80
2023-05-15T02:14:48.555Z,16.10
2023-05-15T02:17:15.168Z,17.48
2023-05-15T02:19:41.642Z,16.98
2023-05-15T02:22:08.184Z,16.75
2023-05-15T02:24:34.516Z,17.65
2023-05-15T02:27:04.138Z,16.90
2023-05-15T02:29:42.418Z,17.38
2023-05-15T02:32:21.691Z,17.20
2023-05-15T02:35:27.031Z,17.42
2023-05-15T02:37:55.136Z,17.65
2023-05-15T02:40:23.387Z,18.02
2023-05-15T02:42:52.397Z,18.17
2023-05-15T02:45:19.630Z,18.48
2023-05-15T02:47:46.213Z,16.98
2023-05-15T02:50:12.590Z,18.48
2023-05-15T02:52:38.942Z,19.60
2023-05-15T02:55:06.239Z,20.40
2023-05-15T02:57:32.503Z,19.33
2023-05-15T03:00:00.424Z,19.92
2023-05-15T03:02:26.909Z,18.75
2023-05-15T03:04:53.299Z,20.27
2023-05-15T03:07:20.647Z,20.17
2023-05-15T03:09:47.040Z,21.13
2023-05-15T03:12:13.429Z,21.25
2023-05-15T03:14:39.924Z,19.55
2023-05-15T03:17:06.291Z,19.05
2023-05-15T03:19:32.595Z,20.48
2023-05-15T03:21:58.950Z,19.27
2023-05-15T03:24:25.264Z,19.88
2023-05-15T03:26:51.561Z,19.63
2023-05-15T03:29:18.034Z,18.00
2023-05-15T03:31:44.348Z,20.42
2023-05-15T03:34:10.659Z,20.83
2023-05-15T03:36:36.944Z,19.35
2023-05-15T03:39:03.236Z,20.15
2023-05-15T03:41:29.499Z,19.10
2023-05-15T03:43:55.825Z,20.67
2023-05-15T03:46:22.462Z,18.95
2023-05-15T03:48:48.811Z,18.60
2023-05-15T03:51:15.270Z,17.67
2023-05-15T03:53:41.608Z,17.58
2023-05-15T03:56:07.967Z,18.45
2023-05-15T03:58:34.357Z,18.70
2023-05-15T04:01:00.640Z,16.88
2023-05-15T04:03:27.180Z,17.13
2023-05-15T04:05:53.654Z,17.55
2023-05-15T04:08:19.955Z,17.98
2023-05-15T04:10:46.194Z,16.98
2023-05-15T04:13:12.556Z,16.17
2023-05-15T04:15:40.769Z,17.65
2023-05-15T04:18:07.091Z,16.38
2023-05-15T04:20:33.995Z,16.10
2023-05-15T04:23:00.566Z,16.48
2023-05-15T04:25:28.021Z,15.75
2023-05-15T04:27:54.348Z,16.58
2023-05-15T04:30:20.704Z,16.55
2023-05-15T04:32:47.205Z,15.55
2023-05-15T04:35:15.038Z,15.05
2023-05-15T04:37:41.929Z,15.52
2023-05-15T04:40:09.243Z,16.85
2023-05-15T04:42:36.789Z,17.00
2023-05-15T04:45:05.299Z,16.30
2023-05-15T04:47:32.409Z,17.25
2023-05-15T04:49:58.940Z,16.42
2023-05-15T04:52:25.369Z,15.55
2023-05-15T04:54:52.982Z,16.73
2023-05-15T04:57:19.422Z,16.83
2023-05-15T04:59:45.727Z,16.00
2023-05-15T05:02:11.979Z,16.05
2023-05-15T05:04:38.281Z,16.55
2023-05-15T05:07:05.865Z,14.77
2023-05-15T05:09:32.171Z,15.57
2023-05-15T05:12:02.203Z,15.93
2023-05-15T05:14:28.744Z,16.23
2023-05-15T05:16:55.081Z,16.00
2023-05-15T05:19:21.415Z,16.85
2023-05-15T05:21:47.714Z,16.67
2023-05-15T05:24:14.025Z,16.30
2023-05-15T05:26:43.049Z,16.05
2023-05-15T05:29:09.317Z,16.52
2023-05-15T05:31:35.646Z,15.85
2023-05-15T05:34:01.993Z,16.42
2023-05-15T05:36:28.255Z,16.50
2023-05-15T05:38:55.465Z,15.13
2023-05-15T05:41:21.835Z,14.82
2023-05-15T05:43:48.162Z,14.10
2023-05-15T05:46:14.534Z,15.05
2023-05-15T05:48:40.785Z,14.60
2023-05-15T05:51:07.358Z,14.02
2023-05-15T05:53:33.636Z,14.43
2023-05-15T05:56:00.193Z,14.35
2023-05-15T05:58:26.601Z,15.77
2023-05-15T06:00:53.324Z,15.43
2023-05-15T06:03:20.410Z,17.30
2023-05-15T06:05:46.861Z,17.45
2023-05-15T06:08:13.215Z,18.00
2023-05-15T06:10:40.000Z,18.13
2023-05-15T06:13:06.559Z,18.35
2023-05-15T06:15:32.889Z,19.00
2023-05-15T06:17:59.339Z,19.45
2023-05-15T06:20:25.892Z,18.98
2023-05-15T06:22:52.481Z,19.98
2023-05-15T06:25:18.887Z,19.23
2023-05-15T06:27:45.336Z,19.30
2023-05-15T06:30:12.212Z,18.80
2023-05-15T06:32:38.662Z,18.27
2023-05-15T06:35:05.358Z,18.70
2023-05-15T06:37:31.906Z,18.63
2023-05-15T06:39:58.241Z,19.17
2023-05-15T06:42:24.491Z,18.85
2023-05-15T06:44:50.810Z,18.55
2023-05-15T06:47:17.150Z,18.27
2023-05-15T06:49:43.552Z,18.17
2023-05-15T06:52:09.874Z,17.55
2023-05-15T06:54:36.238Z,17.88
2023-05-15T06:57:02.553Z,16.67
2023-05-15T06:59:29.022Z,16.83
2023-05-15T07:01:56.100Z,17.63
2023-05-15T07:04:22.654Z,17.52
2023-05-15T07:06:49.030Z,17.02
2023-05-15T07:09:15.330Z,16.80
2023-05-15T07:11:42.156Z,17.55
2023-05-15T07:14:08.509Z,17.30
2023-05-15T07:16:34.851Z,16.73
2023-05-15T07:19:01.295Z,17.73
2023-05-15T07:21:27.979Z,16.20
2023-05-15T07:23:54.233Z,16.02
2023-05-15T07:26:32.524Z,16.60
2023-05-15T07:29:04.086Z,15.60
2023-05-15T07:31:33.787Z,16.70
2023-05-15T07:34:00.324Z,17.83
2023-05-15T07:36:26.600Z,17.95
2023-05-15T07:38:52.955Z,18.92
2023-05-15T07:41:19.223Z,18.65
2023-05-15T07:43:45.500Z,18.15
2023-05-15T07:46:11.851Z,17.40
2023-05-15T07:48:38.162Z,18.23
2023-05-15T07:51:04.491Z,18.15
2023-05-15T07:53:30.996Z,18.23
2023-05-15T07:55:57.304Z,17.85
2023-05-15T07:58:23.726Z,17.90
2023-05-15T08:00:50.195Z,17.83
2023-05-15T08:03:17.129Z,16.08
2023-05-15T08:05:43.567Z,14.95
2023-05-15T08:08:09.957Z,16.08
2023-05-15T08:10:36.226Z,15.18
2023-05-15T08:13:02.497Z,15.50
2023-05-15T08:15:29.322Z,15.57
2023-05-15T08:17:55.896Z,16.75
2023-05-15T08:20:22.274Z,17.27
2023-05-15T08:22:48.534Z,15.40
2023-05-15T08:25:14.836Z,18.60
2023-05-15T08:27:41.155Z,17.17
2023-05-15T08:30:08.420Z,16.25
2023-05-15T08:32:34.726Z,16.30
2023-05-15T08:35:01.205Z,16.08
2023-05-15T08:37:27.490Z,15.05
2023-05-15T08:39:53.839Z,16.02
2023-05-15T08:42:21.770Z,15.50
2023-05-15T08:44:48.143Z,15.27
2023-05-15T08:47:15.084Z,14.40
2023-05-15T08:49:51.255Z,14.15
2023-05-15T08:52:17.593Z,14.57
2023-05-15T08:54:45.488Z,14.38
2023-05-15T08:57:14.687Z,15.05
2023-05-15T08:59:41.123Z,13.98
2023-05-15T09:02:07.565Z,14.63
2023-05-15T09:04:33.977Z,13.48
2023-05-15T09:07:00.826Z,13.13
2023-05-15T09:09:27.624Z,14.30
2023-05-15T09:11:54.145Z,14.75
2023-05-15T09:14:20.569Z,13.55
2023-05-15T09:16:50.195Z,14.70
2023-05-15T09:19:18.721Z,13.43
2023-05-15T09:21:45.143Z,13.32
2023-05-15T09:24:19.043Z,14.70
2023-05-15T09:26:46.299Z,14.27
2023-05-15T09:29:17.400Z,13.27
2023-05-15T09:31:46.327Z,15.00
2023-05-15T09:34:12.930Z,14.73
2023-05-15T09:36:42.379Z,15.32
2023-05-15T09:39:08.824Z,14.02
2023-05-15T09:41:35.129Z,15.20
2023-05-15T09:44:01.422Z,16.60
2023-05-15T09:46:27.810Z,15.48
2023-05-15T09:48:54.456Z,15.98
2023-05-15T09:51:20.862Z,16.40
2023-05-15T09:53:50.921Z,17.02
2023-05-15T09:56:17.679Z,15.32
2023-05-15T09:58:56.926Z,16.83
2023-05-15T10:01:24.249Z,17.02
2023-05-15T10:04:00.595Z,17.55
2023-05-15T10:06:27.069Z,18.02
2023-05-15T10:08:54.240Z,18.73
2023-05-15T10:11:24.113Z,19.10
2023-05-15T10:13:50.782Z,18.77
2023-05-15T10:16:19.317Z,20.00
2023-05-15T10:18:46.344Z,20.75
2023-05-15T10:21:13.633Z,24.75
2023-05-15T10:23:41.100Z,24.08
2023-05-15T10:26:18.252Z,25.55
2023-05-15T10:28:45.809Z,26.30
2023-05-15T10:31:12.866Z,27.35
2023-05-15T10:33:39.827Z,25.90
2023-05-15T10:36:07.282Z,27.05
2023-05-15T10:38:34.091Z,25.67
2023-05-15T10:41:13.076Z,25.85
2023-05-15T10:43:43.387Z,27.33
2023-05-15T10:46:10.770Z,25.45
2023-05-15T10:48:37.156Z,25.88
2023-05-15T10:51:03.556Z,28.17
2023-05-15T10:53:29.784Z,27.10
2023-05-15T10:55:56.105Z,29.05
2023-05-15T10:58:25.364Z,26.60
2023-05-15T11:00:51.689Z,27.90
2023-05-15T11:03:47.845Z,25.77
2023-05-15T11:06:15.882Z,25.75
2023-05-15T11:08:45.848Z,24.33
2023-05-15T11:11:30.998Z,25.83
2023-05-15T11:14:07.857Z,23.33
2023-05-15T11:16:52.408Z,22.58
2023-05-15T11:19:22.388Z,20.38
2023-05-15T11:21:56.922Z,22.48
2023-05-15T11:24:32.986Z,20.50
2023-05-15T11:26:59.887Z,20.23
2023-05-15T11:29:26.645Z,20.15
2023-05-15T11:31:53.089Z,18.83
2023-05-15T11:34:48.880Z,19.60
2023-05-15T11:37:18.004Z,18.08
2023-05-15T11:39:44.415Z,16.98
2023-05-15T11:42:14.126Z,18.95
2023-05-15T11:44:40.588Z,19.30
2023-05-15T11:47:10.881Z,18.08
2023-05-15T11:49:38.110Z,17.05
2023-05-15T11:52:04.688Z,17.38
2023-05-15T11:54:30.996Z,17.60
2023-05-15T11:56:57.601Z,17.63
2023-05-15T11:59:26.842Z,17.90
2023-05-15T12:01:53.116Z,15.68
2023-05-15T12:04:19.627Z,14.48
2023-05-15T12:06:49.909Z,15.40
2023-05-15T12:09:17.429Z,17.90
2023-05-15T12:11:53.645Z,14.65
2023-05-15T12:14:26.768Z,13.63
2023-05-15T12:16:53.376Z,13.75
2023-05-15T12:19:23.779Z,14.68
2023-05-15T12:21:50.853Z,13.77
2023-05-15T12:24:19.814Z,13.00
2023-05-15T12:26:46.731Z,13.48
2023-05-15T12:29:13.622Z,13.57
2023-05-15T12:31:40.057Z,13.75
2023-05-15T12:34:06.581Z,13.93
2023-05-15T12:36:33.175Z,14.82
2023-05-15T12:39:04.429Z,13.35
2023-05-15T12:41:31.155Z,12.77
2023-05-15T12:43:57.525Z,13.35
2023-05-15T12:46:25.519Z,13.00
2023-05-15T12:48:51.927Z,12.32
2023-05-15T12:51:18.568Z,11.85
2023-05-15T12:53:44.900Z,11.90
2023-05-15T12:56:15.911Z,11.70
2023-05-15T12:58:42.253Z,12.77
2023-05-15T13:01:08.629Z,12.23
2023-05-15T13:03:35.622Z,11.98
2023-05-15T13:06:03.380Z,12.68
2023-05-15T13:08:29.763Z,12.05
2023-05-15T13:10:59.667Z,12.48
2023-05-15T13:14:01.407Z,12.30
2023-05-15T13:16:29.781Z,14.32
2023-05-15T13:18:58.322Z,13.75
2023-05-15T13:21:24.945Z,14.52
2023-05-15T13:23:51.826Z,15.25
2023-05-15T13:26:18.264Z,15.82
2023-05-15T13:28:44.569Z,15.32
2023-05-15T13:31:10.934Z,14.30
2023-05-15T13:33:37.559Z,12.18
2023-05-15T13:36:04.053Z,9.18
2023-05-15T13:38:30.567Z,8.25
2023-05-15T13:40:56.896Z,7.40
2023-05-15T13:43:25.157Z,6.78
2023-05-15T13:45:52.806Z,7.45
2023-05-15T13:48:19.198Z,7.90
2023-05-15T13:50:45.805Z,7.88
2023-05-15T13:53:16.644Z,8.52
2023-05-15T13:55:44.753Z,7.57
2023-05-15T13:58:14.121Z,8.00
2023-05-15T14:00:42.388Z,8.73
2023-05-15T14:03:08.757Z,8.05
2023-05-15T14:05:35.172Z,8.70
2023-05-15T14:08:02.537Z,7.25
2023-05-15T14:10:29.299Z,7.30
2023-05-15T14:12:55.550Z,7.00
2023-05-15T14:15:21.849Z,7.03
2023-05-15T14:17:48.797Z,5.50
2023-05-15T14:20:15.197Z,6.00
2023-05-15T14:22:41.504Z,5.05
2023-05-15T14:25:08.762Z,7.13
2023-05-15T14:27:35.384Z,6.68
2023-05-15T14:30:01.691Z,7.53
2023-05-15T14:32:27.981Z,7.22
2023-05-15T14:34:54.272Z,7.10
2023-05-15T14:37:20.661Z,6.43
2023-05-15T14:39:46.946Z,5.88
2023-05-15T14:42:13.272Z,5.70
2023-05-15T14:44:39.533Z,5.22
2023-05-15T14:47:07.270Z,6.30
2023-05-15T14:49:33.957Z,7.18
2023-05-15T14:52:00.471Z,7.60
2023-05-15T14:54:26.722Z,7.63
2023-05-15T14:56:53.770Z,7.95
2023-05-15T14:59:21.089Z,7.78
2023-05-15T15:01:47.531Z,7.53
2023-05-15T15:04:14.271Z,7.45
2023-05-15T15:06:41.215Z,7.47
2023-05-15T15:09:07.507Z,5.85
2023-05-15T15:11:33.845Z,6.70
2023-05-15T15:14:00.674Z,6.28
2023-05-15T15:16:27.093Z,5.20
2023-05-15T15:18:53.522Z,5.78
2023-05-15T15:21:19.829Z,6.45
2023-05-15T15:23:46.218Z,6.65
2023-05-15T15:26:12.549Z,6.65
2023-05-15T15:28:38.916Z,6.78
2023-05-15T15:31:05.299Z,6.47
2023-05-15T15:33:31.775Z,6.70
2023-05-15T15:35:58.216Z,6.70
2023-05-15T15:38:24.573Z,6.10
2023-05-15T15:40:51.300Z,5.60
2023-05-15T15:43:17.676Z,5.95
2023-05-15T15:45:44.080Z,7.50
2023-05-15T15:48:10.493Z,7.15
2023-05-15T15:50:38.364Z,6.25
2023-05-15T15:53:04.691Z,6.47
2023-05-15T15:55:31.036Z,5.85
2023-05-15T15:57:57.383Z,6.00
2023-05-15T16:00:24.082Z,6.93
2023-05-15T16:02:50.723Z,5.47
2023-05-15T16:05:17.100Z,5.43
2023-05-15T16:07:43.365Z,5.43
2023-05-15T16:10:13.121Z,5.07
2023-05-15T16:12:40.667Z,5.05
2023-05-15T16:15:20.776Z,4.90
2023-05-15T16:17:50.409Z,4.18
2023-05-15T16:20:16.894Z,3.70
2023-05-15T16:22:43.893Z,3.72
2023-05-15T16:25:10.434Z,4.25
2023-05-15T16:27:36.772Z,4.05
2023-05-15T16:30:03.172Z,3.50
2023-05-15T16:32:29.488Z,3.55
2023-05-15T16:34:55.876Z,3.50
2023-05-15T16:37:22.156Z,3.20
2023-05-15T16:39:48.736Z,3.30
2023-05-15T16:42:16.342Z,3.47
2023-05-15T16:44:42.714Z,3.03
2023-05-15T16:47:09.037Z,3.03
2023-05-15T16:49:35.387Z,2.38
2023-05-15T16:52:01.657Z,2.05
2023-05-15T16:54:27.946Z,1.90
2023-05-15T16:56:54.346Z,2.05
2023-05-15T16:59:20.680Z,1.70
2023-05-15T17:01:47.087Z,1.40
2023-05-15T17:04:13.496Z,1.70
2023-05-15T17:06:39.790Z,1.88
2023-05-15T17:09:06.158Z,1.50
2023-05-15T17:11:32.447Z,1.77
2023-05-15T17:13:58.774Z,1.85
2023-05-15T17:16:25.097Z,1.83
2023-05-15T17:18:51.467Z,1.58
2023-05-15T17:21:17.790Z,2.00
2023-05-15T17:23:44.112Z,2.30
2023-05-15T17:26:10.472Z,1.88
2023-05-15T17:28:38.948Z,1.80
2023-05-15T17:31:10.018Z,2.45
2023-05-15T17:33:36.453Z,2.33
2023-05-15T17:36:02.822Z,2.35
2023-05-15T17:38:29.431Z,2.47
2023-05-15T17:40:55.852Z,2.80
2023-05-15T17:43:22.260Z,2.47
2023-05-15T17:45:48.713Z,2.70
2023-05-15T17:48:15.301Z,2.50
2023-05-15T17:50:42.129Z,2.30
2023-05-15T17:53:08.431Z,2.20
2023-05-15T17:55:35.273Z,2.28
2023-05-15T17:58:01.630Z,3.22
2023-05-15T18:00:27.940Z,2.90
2023-05-15T18:02:54.493Z,3.45
2023-05-15T18:05:20.848Z,2.30
2023-05-15T18:07:48.200Z,3.53
2023-05-15T18:10:14.653Z,2.50
2023-05-15T18:12:40.986Z,2.83
2023-05-15T18:15:07.491Z,3.22
2023-05-15T18:17:33.814Z,2.22
2023-05-15T18:20:00.205Z,2.92
2023-05-15T18:22:26.608Z,2.67
2023-05-15T18:24:53.076Z,4.38
2023-05-15T18:27:19.463Z,3.45
2023-05-15T18:29:45.780Z,2.00
2023-05-15T18:32:12.098Z,2.75
2023-05-15T18:34:38.485Z,4.07
2023-05-15T18:37:04.912Z,2.03
2023-05-15T18:39:31.178Z,1.40
2023-05-15T18:41:57.644Z,1.65
2023-05-15T18:44:24.028Z,1.50
2023-05-15T18:46:50.388Z,1.98
2023-05-15T18:49:18.012Z,1.35
2023-05-15T18:51:44.407Z,1.65
2023-05-15T18:54:10.734Z,1.42
2023-05-15T18:56:36.996Z,2.20
2023-05-15T18:59:05.622Z,1.65
2023-05-15T19:01:32.214Z,1.60
2023-05-15T19:03:58.779Z,1.75
2023-05-15T19:06:25.204Z,2.10
2023-05-15T19:08:51.512Z,0.98
2023-05-15T19:11:18.008Z,1.40
2023-05-15T19:13:44.588Z,1.35
2023-05-15T19:16:12.312Z,1.30
2023-05-15T19:18:38.822Z,0.90
2023-05-15T19:21:05.312Z,1.00
2023-05-15T19:23:31.657Z,0.88
2023-05-15T19:25:57.946Z,0.65
2023-05-15T19:28:24.338Z,0.73
2023-05-15T19:30:50.894Z,0.70
2023-05-15T19:33:17.402Z,0.70
2023-05-15T19:35:44.261Z,0.82
2023-05-15T19:38:10.770Z,1.25
2023-05-15T19:40:37.084Z,0.80
2023-05-15T19:43:03.361Z,1.10
2023-05-15T19:45:30.494Z,0.77
2023-05-15T19:47:56.964Z,1.27
2023-05-15T19:50:23.451Z,0.90
2023-05-15T19:52:49.812Z,1.27
2023-05-15T19:55:16.455Z,0.90
2023-05-15T19:57:44.935Z,1.38
2023-05-15T20:00:12.417Z,1.20
2023-05-15T20:02:38.890Z,1.38
2023-05-15T20:05:05.512Z,1.30
2023-05-15T20:07:31.825Z,1.13
2023-05-15T20:09:58.157Z,1.27
2023-05-15T20:12:24.587Z,1.30
2023-05-15T20:14:51.722Z,1.38
2023-05-15T20:17:18.146Z,1.23
2023-05-15T20:19:44.604Z,1.77
2023-05-15T20:22:10.886Z,1.35
2023-05-15T20:24:38.629Z,1.58
2023-05-15T20:27:05.362Z,1.35
2023-05-15T20:29:31.653Z,1.30
2023-05-15T20:31:58.757Z,1.65
2023-05-15T20:34:25.218Z,2.13
2023-05-15T20:36:52.961Z,1.45
2023-05-15T20:39:19.675Z,1.48
2023-05-15T20:41:46.385Z,1.60
2023-05-15T20:44:12.766Z,1.73
2023-05-15T20:46:39.937Z,1.40
2023-05-15T20:49:06.449Z,1.60
2023-05-15T20:51:33.046Z,1.77
2023-05-15T20:53:59.361Z,2.00
2023-05-15T20:56:26.098Z,2.00
2023-05-15T20:58:53.022Z,1.50
2023-05-15T21:01:19.423Z,1.38
2023-05-15T21:03:45.815Z,1.77
2023-05-15T21:06:13.735Z,1.50
2023-05-15T21:08:40.393Z,2.28
2023-05-15T21:11:07.137Z,2.63
2023-05-15T21:13:33.589Z,2.08
2023-05-15T21:16:00.144Z,1.92
2023-05-15T21:18:26.463Z,1.70
2023-05-15T21:20:53.090Z,1.52
2023-05-15T21:23:20.963Z,2.40
2023-05-15T21:25:47.378Z,2.03
2023-05-15T21:28:13.734Z,2.47
2023-05-15T21:30:40.016Z,1.92
2023-05-15T21:33:09.155Z,2.25
2023-05-15T21:35:37.010Z,2.25
2023-05-15T21:38:03.440Z,2.17
2023-05-15T21:40:29.759Z,2.53
2023-05-15T21:42:56.001Z,2.08
2023-05-15T21:45:22.400Z,2.38
2023-05-15T21:47:48.828Z,2.35
2023-05-15T21:50:15.434Z,1.60
2023-05-15T21:52:42.005Z,2.40
2023-05-15T21:55:08.549Z,2.42
2023-05-15T21:57:34.870Z,2.20
2023-05-15T22:00:01.213Z,2.30
2023-05-15T22:02:27.564Z,2.90
2023-05-15T22:04:53.932Z,2.53
2023-05-15T22:07:20.603Z,2.40
2023-05-15T22:09:47.119Z,1.75
2023-05-15T22:12:13.485Z,2.60
2023-05-15T22:14:50.672Z,1.98
2023-05-15T22:17:26.918Z,1.95
2023-05-15T22:19:53.532Z,2.35
2023-05-15T22:22:20.755Z,3.13
2023-05-15T22:24:47.213Z,2.30
2023-05-15T22:27:16.473Z,2.85
2023-05-15T22:29:42.820Z,3.17
2023-05-15T22:32:09.214Z,2.55
2023-05-15T22:34:35.863Z,2.10
2023-05-15T22:37:02.200Z,2.30
2023-05-15T22:39:28.798Z,2.03
2023-05-15T22:41:55.871Z,2.20
2023-05-15T22:44:22.405Z,3.00
2023-05-15T22:46:48.743Z,2.67
2023-05-15T22:49:19.167Z,2.65
2023-05-15T22:51:45.489Z,1.85
2023-05-15T22:54:11.849Z,2.55
2023-05-15T22:56:38.110Z,2.97
2023-05-15T22:59:04.443Z,2.13
2023-05-15T23:01:32.119Z,1.75
2023-05-15T23:03:58.840Z,2.42
2023-05-15T23:06:25.423Z,2.40
2023-05-15T23:08:51.692Z,2.33
2023-05-15T23:11:18.102Z,2.78
2023-05-15T23:13:44.454Z,1.73
2023-05-15T23:16:10.804Z,1.90
2023-05-15T23:18:37.221Z,2.03
2023-05-15T23:21:04.714Z,2.50
2023-05-15T23:23:31.140Z,2.25
2023-05-15T23:25:57.491Z,2.25
2023-05-15T23:28:23.762Z,2.67
2023-05-15T23:30:52.690Z,2.33
2023-05-15T23:33:19.060Z,2.25
2023-05-15T23:35:45.374Z,2.38
2023-05-15T23:38:11.619Z,2.75
2023-05-15T23:40:37.991Z,2.50
2023-05-15T23:43:04.289Z,2.65
2023-05-15T23:45:30.617Z,1.75
2023-05-15T23:47:56.967Z,2.50
2023-05-15T23:50:23.370Z,1.77
2023-05-15T23:52:49.943Z,1.90
2023-05-15T23:55:16.320Z,2.53
2023-05-15T23:57:43.590Z,2.10
